Time;durP1;ratioP1;P1;durP2;ratioP2;P2;SDS_P1;SDS_P2;PMS_P1;PMS_P2;Temp;Humidity;BMP_temperature;BMP_pressure;BME280_temperature;BME280_humidity;BME280_pressure;Samples;Min_cycle;Max_cycle;Signal;HPM_P1;HPM_P2
2021/08/25 00:00:04;;;;;;;11.97;10.67;;;12.50;99.90;;;;;;4972044;28;20644;-90
2021/08/25 00:02:32;;;;;;;12.63;10.10;;;;;;;;;;4975147;28;20505;-91
2021/08/25 00:04:59;;;;;;;12.33;11.13;;;;;;;;;;4972372;28;20457;-90
2021/08/25 00:07:27;;;;;;;12.80;11.40;;;;;;;;;;4975150;28;20485;-91
2021/08/25 00:09:55;;;;;;;12.93;11.30;;;;;;;;;;4971774;28;20949;-89
2021/08/25 00:12:22;;;;;;;12.67;11.37;;;;;;;;;;4971817;28;20446;-91
2021/08/25 00:14:49;;;;;;;12.73;11.40;;;;;;;;;;4974801;28;20461;-90
2021/08/25 00:17:19;;;;;;;15.07;11.00;;;12.20;99.90;;;;;;4975952;28;20455;-91
2021/08/25 00:19:46;;;;;;;11.90;10.70;;;;;;;;;;4975673;28;20454;-92
2021/08/25 00:22:13;;;;;;;12.60;11.30;;;;;;;;;;4975125;28;20484;-91
2021/08/25 00:24:41;;;;;;;13.17;11.83;;;;;;;;;;4974596;28;20505;-90
2021/08/25 00:27:08;;;;;;;12.53;11.23;;;;;;;;;;4968693;28;20473;-91
2021/08/25 00:29:35;;;;;;;15.17;12.47;;;;;;;;;;4971436;28;20466;-90
2021/08/25 00:32:02;;;;;;;14.20;11.30;;;;;;;;;;4971432;28;20965;-90
2021/08/25 00:34:30;;;;;;;15.37;10.70;;;12.10;99.90;;;;;;4971478;28;20972;-90
2021/08/25 00:36:58;;;;;;;13.00;11.53;;;;;;;;;;4977226;28;20453;-88
2021/08/25 00:39:25;;;;;;;15.83;11.67;;;;;;;;;;4974992;28;20497;-90
2021/08/25 00:41:52;;;;;;;14.50;11.77;;;;;;;;;;4977168;28;20485;-90
2021/08/25 00:44:19;;;;;;;15.07;12.27;;;;;;;;;;4977667;28;20446;-89
2021/08/25 00:46:47;;;;;;;13.33;11.93;;;;;;;;;;4977811;28;20454;-89
2021/08/25 00:49:14;;;;;;;15.57;12.00;;;;;;;;;;4977877;28;20438;-91
2021/08/25 00:51:45;;;;;;;15.97;11.17;;;12.00;99.90;;;;;;4977953;28;20455;-89
2021/08/25 00:54:12;;;;;;;16.07;11.20;;;;;;;;;;4974801;28;20505;-92
2021/08/25 00:56:39;;;;;;;13.40;12.10;;;;;;;;;;4970547;28;20473;-90
2021/08/25 00:59:07;;;;;;;13.33;11.93;;;12.10;99.90;;;;;;4974526;28;20854;-90
2021/08/25 01:01:51;;;;;;;14.10;11.23;;;12.10;99.90;;;;;;4974539;28;20449;-89
2021/08/25 01:04:22;;;;;;;13.47;11.87;;;12.10;99.90;;;;;;4973323;28;20564;-91
2021/08/25 01:06:50;;;;;;;13.83;12.43;;;12.10;99.90;;;;;;4977328;28;20438;-90
2021/08/25 01:09:18;;;;;;;12.77;11.47;;;13.30;99.90;;;;;;4974437;28;20497;-89
2021/08/25 01:11:48;;;;;;;12.47;11.17;;;12.00;99.90;;;;;;4972736;28;20965;-90
2021/08/25 01:14:15;;;;;;;12.83;11.37;;;;;;;;;;4973359;28;20462;-90
2021/08/25 01:16:43;;;;;;;15.70;11.10;;;;;;;;;;4977277;28;20446;-90
2021/08/25 01:19:13;;;;;;;20.33;11.37;;;12.00;99.90;;;;;;4976982;28;20431;-91
2021/08/25 01:21:41;;;;;;;16.73;11.60;;;;;;;;;;4971630;28;20466;-90
2021/08/25 01:24:11;;;;;;;13.17;11.80;;;11.80;99.90;;;;;;4976819;28;20485;-91
2021/08/25 01:26:38;;;;;;;11.73;10.50;;;;;;;;;;4976627;28;20438;-92
2021/08/25 01:29:10;;;;;;;11.80;10.70;;;;;;;;;;4977321;28;20481;-93
2021/08/25 01:31:38;;;;;;;11.80;10.20;;;;;;;;;;4977328;28;20438;-91
2021/08/25 01:34:06;;;;;;;11.40;10.00;;;11.60;99.90;;;;;;4976647;28;20439;-89
2021/08/25 01:36:33;;;;;;;12.07;10.77;;;;;;;;;;4974350;28;20438;-94
2021/08/25 01:39:01;;;;;;;13.63;12.03;;;;;;;;;;4974608;28;20451;-90
2021/08/25 01:41:28;;;;;;;13.33;11.77;;;11.60;99.90;;;;;;4976243;28;20945;-93
2021/08/25 01:43:56;;;;;;;11.63;10.17;;;;;;;;;;4976872;28;20570;-91
2021/08/25 01:46:26;;;;;;;12.40;10.77;;;11.40;99.90;;;;;;4976707;28;20902;-91
2021/08/25 01:48:56;;;;;;;10.87;9.77;;;11.40;99.90;;;;;;4970316;28;20455;-91
2021/08/25 01:51:23;;;;;;;11.40;10.20;;;;;;;;;;4972190;28;20461;-90
2021/08/25 01:53:50;;;;;;;11.73;10.50;;;;;;;;;;4970532;28;20462;-92
2021/08/25 01:56:17;;;;;;;13.83;10.83;;;;;;;;;;4976188;28;20519;-90
2021/08/25 01:58:44;;;;;;;11.77;10.57;;;;;;;;;;4976841;28;20839;-90
2021/08/25 02:01:12;;;;;;;11.67;10.43;;;;;;;;;;4973499;28;20755;-91
2021/08/25 02:03:39;;;;;;;12.43;10.43;;;;;;;;;;4977411;28;20494;-92
2021/08/25 02:06:07;;;;;;;12.00;10.80;;;;;;;;;;4979519;28;20430;-90
2021/08/25 02:08:34;;;;;;;11.60;10.40;;;;;;;;;;4999570;28;20442;-91
2021/08/25 02:11:01;;;;;;;13.37;9.90;;;;;;;;;;4989324;28;20454;-91
2021/08/25 02:13:29;;;;;;;13.20;10.90;;;10.90;99.90;;;;;;4976484;28;20484;-89
2021/08/25 02:15:56;;;;;;;12.30;10.07;;;;;;;;;;4973191;28;20446;-91
2021/08/25 02:18:23;;;;;;;12.17;10.73;;;;;;;;;;4976331;28;20449;-90
2021/08/25 02:20:50;;;;;;;12.13;10.87;;;;;;;;;;4976175;28;20438;-90
2021/08/25 02:23:19;;;;;;;14.20;11.33;;;;;;;;;;4975991;28;20505;-92
2021/08/25 02:25:46;;;;;;;12.20;10.90;;;;;;;;;;4972570;28;20470;-88
2021/08/25 02:28:13;;;;;;;10.97;9.67;;;;;;;;;;4972909;28;20481;-91
2021/08/25 02:30:41;;;;;;;12.63;10.93;;;;;;;;;;4976348;28;20443;-90
2021/08/25 02:33:08;;;;;;;12.67;10.07;;;;;;;;;;4976192;28;20446;-91
2021/08/25 02:35:35;;;;;;;11.20;9.70;;;;;;;;;;4975417;28;20914;-91
2021/08/25 02:38:02;;;;;;;12.30;11.00;;;;;;;;;;4975347;28;20457;-90
2021/08/25 02:40:31;;;;;;;15.03;11.47;;;10.80;99.90;;;;;;4975039;28;20454;-90
2021/08/25 02:42:58;;;;;;;12.73;10.80;;;;;;;;;;4969772;28;20494;-90
2021/08/25 02:45:25;;;;;;;13.67;10.93;;;;;;;;;;4975523;28;20441;-91
2021/08/25 02:47:52;;;;;;;13.10;11.47;;;;;;;;;;4972661;28;20462;-91
2021/08/25 02:50:19;;;;;;;14.97;12.03;;;;;;;;;;4975343;28;20460;-89
2021/08/25 02:52:47;;;;;;;12.83;10.97;;;;;;;;;;4970317;28;20449;-91
2021/08/25 02:55:14;;;;;;;13.90;12.07;;;;;;;;;;4969440;28;20442;-89
2021/08/25 02:57:42;;;;;;;11.60;10.30;;;;;;;;;;4975362;28;20434;-91
2021/08/25 03:00:11;;;;;;;11.80;10.60;;;10.70;99.90;;;;;;4974932;28;20497;-90
2021/08/25 03:02:38;;;;;;;15.63;12.07;;;;;;;;;;4969615;28;20486;-90
2021/08/25 03:05:06;;;;;;;13.07;11.63;;;10.70;99.90;;;;;;4972316;28;20459;-90
2021/08/25 03:07:33;;;;;;;15.53;11.80;;;;;;;;;;4969565;28;20434;-92
2021/08/25 03:10:00;;;;;;;15.20;11.77;;;;;;;;;;4974311;28;20438;-89
2021/08/25 03:12:28;;;;;;;13.83;11.10;;;;;;;;;;4972154;28;20927;-90
2021/08/25 03:14:56;;;;;;;14.87;12.70;;;;;;;;;;4975342;28;20438;-90
2021/08/25 03:17:23;;;;;;;15.70;11.90;;;;;;;;;;4970672;28;20451;-90
2021/08/25 03:19:50;;;;;;;14.60;12.40;;;;;;;;;;4974991;28;21018;-88
2021/08/25 03:22:17;;;;;;;13.47;10.80;;;;;;;;;;4972536;28;20457;-90
2021/08/25 03:24:45;;;;;;;13.07;10.77;;;;;;;;;;4971924;28;20528;-90
2021/08/25 03:27:12;;;;;;;16.80;11.03;;;;;;;;;;4974637;28;20458;-91
2021/08/25 03:29:39;;;;;;;15.30;10.87;;;;;;;;;;4975474;28;20474;-90
2021/08/25 03:32:08;;;;;;;13.07;11.33;;;;;;;;;;4974954;28;20454;-92
2021/08/25 03:34:36;;;;;;;13.83;11.07;;;;;;;;;;4974905;28;20466;-90
2021/08/25 03:37:04;;;;;;;12.10;10.90;;;;;;;;;;4974557;28;20466;-89
2021/08/25 03:39:31;;;;;;;14.53;11.13;;;;;;;;;;4974689;28;20605;-90
2021/08/25 03:41:58;;;;;;;13.63;10.90;;;;;;;;;;4974328;28;20435;-90
2021/08/25 03:44:25;;;;;;;15.37;11.37;;;;;;;;;;4974592;28;20494;-90
2021/08/25 03:46:52;;;;;;;12.03;10.63;;;;;;;;;;4971694;28;20473;-91
2021/08/25 03:49:21;;;;;;;13.70;11.53;;;;;;;;;;4974672;28;20452;-91
2021/08/25 03:51:48;;;;;;;12.17;10.30;;;;;;;;;;4974811;28;20449;-88
2021/08/25 03:54:15;;;;;;;12.33;11.10;;;;;;;;;;4974608;28;20477;-90
2021/08/25 03:56:42;;;;;;;13.00;11.63;;;;;;;;;;4974179;28;20438;-90
2021/08/25 03:59:09;;;;;;;15.73;10.80;;;;;;;;;;4971676;28;20457;-89
2021/08/25 04:01:36;;;;;;;12.87;11.40;;;;;;;;;;4975024;28;20805;-89
2021/08/25 04:04:06;;;;;;;12.57;10.17;;;;;;;;;;4974298;28;20505;-89
2021/08/25 04:06:36;;;;;;;13.83;12.30;;;10.20;99.90;;;;;;4972078;28;20446;-89
2021/08/25 04:09:03;;;;;;;14.37;12.17;;;;;;;;;;4970876;28;20442;-89
2021/08/25 04:11:31;;;;;;;12.63;11.33;;;;;;;;;;4976716;28;20953;-89
2021/08/25 04:13:58;;;;;;;13.30;10.43;;;;;;;;;;4975200;28;20464;-89
2021/08/25 04:16:25;;;;;;;13.93;11.00;;;;;;;;;;4978209;28;20450;-90
2021/08/25 04:18:52;;;;;;;13.30;10.60;;;;;;;;;;4978446;28;20458;-90
2021/08/25 04:21:19;;;;;;;13.33;10.57;;;;;;;;;;4974999;28;20446;-89
2021/08/25 04:23:48;;;;;;;15.30;11.53;;;;;;;;;;4977802;28;20505;-91
2021/08/25 04:26:15;;;;;;;14.47;11.30;;;;;;;;;;4974669;28;20465;-91
2021/08/25 04:28:42;;;;;;;12.97;9.83;;;;;;;;;;4978268;28;20485;-90
2021/08/25 04:31:09;;;;;;;14.73;10.90;;;10.10;99.90;;;;;;4978041;28;20454;-91
2021/08/25 04:33:37;;;;;;;15.20;12.33;;;;;;;;;;4978213;28;20442;-89
2021/08/25 04:36:04;;;;;;;16.17;12.43;;;;;;;;;;4977863;28;20480;-89
2021/08/25 04:38:32;;;;;;;12.87;10.77;;;;;;;;;;4977741;28;20446;-90
2021/08/25 04:41:00;;;;;;;15.37;11.23;;;;;;;;;;4977068;28;20446;-89
2021/08/25 04:43:27;;;;;;;13.83;11.90;;;;;;;;;;4974850;28;20485;-90
2021/08/25 04:45:54;;;;;;;16.20;12.37;;;;;;;;;;4975099;28;20461;-90
2021/08/25 04:48:22;;;;;;;17.17;12.40;;;;;;;;;;4977702;28;20454;-90
2021/08/25 04:50:49;;;;;;;12.47;10.90;;;;;;;;;;4975006;28;20497;-91
2021/08/25 04:53:17;;;;;;;12.90;10.93;;;;;;;;;;4977759;28;20435;-91
2021/08/25 04:55:44;;;;;;;14.00;11.30;;;;;;;;;;4977314;28;20914;-90
2021/08/25 04:58:12;;;;;;;15.23;12.07;;;10.10;99.90;;;;;;4974831;28;20454;-91
2021/08/25 05:00:40;;;;;;;17.03;12.53;;;;;;;;;;4971963;28;20450;-91
2021/08/25 05:03:07;;;;;;;15.00;12.10;;;;;;;;;;4977546;28;20492;-91
2021/08/25 05:05:34;;;;;;;16.30;12.60;;;;;;;;;;4974684;28;20430;-91
2021/08/25 05:08:01;;;;;;;16.60;12.67;;;;;;;;;;4974513;28;20462;-90
2021/08/25 05:10:28;;;;;;;14.53;12.17;;;;;;;;;;4973980;28;20442;-89
2021/08/25 05:12:55;;;;;;;14.20;11.47;;;;;;;;;;4977525;28;20438;-91
2021/08/25 05:15:23;;;;;;;15.50;11.83;;;10.60;99.90;;;;;;4977233;28;20451;-92
2021/08/25 05:17:50;;;;;;;15.17;12.83;;;;;;;;;;4977300;28;20450;-91
2021/08/25 05:20:18;;;;;;;18.80;12.80;;;;;;;;;;4977003;28;20872;-90
2021/08/25 05:22:45;;;;;;;14.70;12.63;;;;;;;;;;4977148;28;20910;-91
2021/08/25 05:25:12;;;;;;;19.97;13.80;;;;;;;;;;4976185;28;20926;-90
2021/08/25 05:27:39;;;;;;;15.40;13.50;;;;;;;;;;4974045;28;20494;-90
2021/08/25 05:30:07;;;;;;;16.10;13.00;;;;;;;;;;4974105;28;20438;-91
2021/08/25 05:32:35;;;;;;;16.83;13.33;;;11.30;99.90;;;;;;4973988;28;20462;-91
2021/08/25 05:35:02;;;;;;;19.80;13.67;;;;;;;;;;4977094;28;20439;-92
2021/08/25 05:37:29;;;;;;;16.30;14.00;;;;;;;;;;4977251;28;20776;-91
2021/08/25 05:39:56;;;;;;;15.07;13.10;;;;;;;;;;4976774;28;20438;-91
2021/08/25 05:42:23;;;;;;;13.43;12.07;;;;;;;;;;4976746;28;20466;-92
2021/08/25 05:44:50;;;;;;;12.37;10.77;;;;;;;;;;4976541;28;20497;-92
2021/08/25 05:47:18;;;;;;;15.23;11.27;;;;;;;;;;4976684;28;20441;-92
2021/08/25 05:49:46;;;;;;;14.60;12.33;;;13.40;99.90;;;;;;4976883;28;20438;-92
2021/08/25 05:52:13;;;;;;;12.60;10.87;;;;;;;;;;4976845;28;21031;-92
2021/08/25 05:54:40;;;;;;;11.33;10.13;;;;;;;;;;4976599;28;20458;-91
2021/08/25 05:57:07;;;;;;;11.93;10.73;;;;;;;;;;4972937;28;20458;-90
2021/08/25 05:59:34;;;;;;;11.80;10.50;;;;;;;;;;4976383;28;20443;-92
2021/08/25 06:02:01;;;;;;;11.80;10.60;;;;;;;;;;4976677;28;20467;-92
2021/08/25 06:04:28;;;;;;;9.87;8.87;;;;;;;;;;4978693;28;20481;-93
2021/08/25 06:06:56;;;;;;;10.20;9.20;;;14.80;99.90;;;;;;4974101;28;20458;-93
2021/08/25 06:09:24;;;;;;;10.27;9.27;;;;;;;;;;4972450;28;20438;-91
2021/08/25 06:11:51;;;;;;;9.47;8.47;;;;;;;;;;4975512;28;20446;-90
2021/08/25 06:14:18;;;;;;;10.00;9.10;;;;;;;;;;4977740;28;20901;-92
2021/08/25 06:16:45;;;;;;;10.30;9.27;;;;;;;;;;4974823;28;20468;-93
2021/08/25 06:19:13;;;;;;;12.20;9.10;;;;;;;;;;4973307;28;20445;-91
2021/08/25 06:21:40;;;;;;;10.07;8.63;;;;;;;;;;4976473;28;20453;-93
2021/08/25 06:24:08;;;;;;;9.90;8.90;;;;;;;;;;4975915;28;20868;-89
2021/08/25 06:26:35;;;;;;;10.07;9.07;;;;;;;;;;4975066;28;20485;-90
2021/08/25 06:29:02;;;;;;;10.50;9.40;;;;;;;;;;4976337;28;20470;-90
2021/08/25 06:31:29;;;;;;;10.90;8.63;;;;;;;;;;4976266;28;20509;-91
2021/08/25 06:33:56;;;;;;;8.20;7.40;;;;;;;;;;4975096;28;20443;-91
2021/08/25 06:36:24;;;;;;;9.00;8.10;;;;;;;;;;4976136;28;20450;-91
2021/08/25 06:38:51;;;;;;;9.20;8.30;;;;;;;;;;4975973;28;20441;-93
2021/08/25 06:41:20;;;;;;;9.23;8.43;;;;;;;;;;4975235;28;20450;-89
2021/08/25 06:43:47;;;;;;;15.43;9.60;;;;;;;;;;4993066;23;20781;-93
2021/08/25 06:46:17;;;;;;;9.23;8.23;;;;;;;;;;5037522;28;20475;-92
2021/08/25 06:48:44;;;;;;;9.37;8.47;;;;;;;;;;5036898;28;20483;-93
2021/08/25 06:51:11;;;;;;;9.83;7.03;;;;;;;;;;5037004;28;20470;-92
2021/08/25 06:53:40;;;;;;;7.73;7.03;;;;;;;;;;5037181;28;20465;-94
2021/08/25 06:56:07;;;;;;;8.97;8.17;;;;;;;;;;5037552;28;20454;-94
2021/08/25 06:58:38;;;;;;;9.50;8.60;;;;;;;;;;5040962;28;20489;-94
2021/08/25 07:01:05;;;;;;;8.70;7.80;;;;;;;;;;5043306;28;20444;-93
2021/08/25 07:03:34;;;;;;;10.27;7.83;;;;;;;;;;5040238;28;20458;-91
2021/08/25 07:06:01;;;;;;;8.93;8.00;;;;;;;;;;5036106;28;20462;-91
2021/08/25 07:08:28;;;;;;;11.23;7.47;;;;;;;;;;5034380;28;20470;-90
2021/08/25 07:10:55;;;;;;;7.40;6.23;;;;;;;;;;5033771;28;20498;-89
2021/08/25 07:13:22;;;;;;;8.53;7.73;;;;;;;;;;5031875;28;20445;-90
2021/08/25 07:15:51;;;;;;;8.33;7.53;;;;;;;;;;5034313;28;20440;-91
2021/08/25 07:18:18;;;;;;;7.33;6.70;;;;;;;;;;5035250;28;20459;-90
2021/08/25 07:20:45;;;;;;;7.33;6.73;;;;;;;;;;5034453;28;20455;-92
2021/08/25 07:23:12;;;;;;;7.57;6.87;;;;;;;;;;5034225;28;20459;-91
2021/08/25 07:25:40;;;;;;;6.77;6.10;;;;;;;;;;5032984;28;20491;-91
2021/08/25 07:28:07;;;;;;;10.13;5.40;;;;;;;;;;5053308;28;20532;-89
2021/08/25 07:30:34;;;;;;;6.43;5.67;;;;;;;;;;5057821;28;20891;-90
2021/08/25 07:33:03;;;;;;;5.60;4.90;;;;;;;;;;5054748;28;20451;-89
2021/08/25 07:35:30;;;;;;;6.63;5.93;;;;;;;;;;5056835;28;20443;-90
2021/08/25 07:37:57;;;;;;;6.20;5.60;;;;;;;;;;5056233;28;20446;-87
2021/08/25 07:40:24;;;;;;;6.40;5.80;;;;;;;;;;5055184;28;20442;-88
2021/08/25 07:42:52;;;;;;;6.80;6.00;;;;;;;;;;5055174;28;20442;-89
2021/08/25 07:45:19;;;;;;;7.33;5.37;;;;;;;;;;5052374;28;20547;-89
2021/08/25 07:47:47;;;;;;;5.10;4.60;;;;;;;;;;5058514;28;20446;-89
2021/08/25 07:50:15;;;;;;;5.30;4.77;;;18.60;99.90;;;;;;5058366;28;20450;-91
2021/08/25 07:52:42;;;;;;;5.80;5.20;;;;;;;;;;5058043;28;20817;-90
2021/08/25 07:55:10;;;;;;;7.37;5.80;;;;;;;;;;5056890;28;20454;-90
2021/08/25 07:57:37;;;;;;;6.23;5.40;;;;;;;;;;5057573;28;20442;-92
2021/08/25 08:00:04;;;;;;;7.50;5.67;;;;;;;;;;5057701;28;20465;-90
2021/08/25 08:02:31;;;;;;;6.10;5.50;;;;;;;;;;5055402;28;20446;-94
2021/08/25 08:04:59;;;;;;;7.20;5.70;;;;;;;;;;5057310;28;20490;-92
2021/08/25 08:07:27;;;;;;;5.37;4.87;;;21.10;99.90;;;;;;5058195;28;20435;-91
2021/08/25 08:09:54;;;;;;;5.83;5.33;;;;;;;;;;5058652;28;20460;-91
2021/08/25 08:12:21;;;;;;;6.50;5.90;;;;;;;;;;5056725;28;20439;-91
2021/08/25 08:14:48;;;;;;;5.80;5.20;;;;;;;;;;5057542;28;20442;-93
2021/08/25 08:17:16;;;;;;;5.87;4.90;;;;;;;;;;5057880;28;20447;-94
2021/08/25 08:19:44;;;;;;;6.40;4.90;;;;;;;;;;5061403;28;21190;-91
2021/08/25 08:22:11;;;;;;;5.53;4.57;;;;;;;;;;5058412;28;20446;-91
2021/08/25 08:24:39;;;;;;;5.60;4.10;;;19.90;99.90;;;;;;5057607;28;20489;-90
2021/08/25 08:27:06;;;;;;;4.93;4.40;;;;;;;;;;5014797;28;20468;-90
2021/08/25 08:29:36;;;;;;;5.57;4.97;;;20.90;99.90;;;;;;5011709;28;20460;-93
2021/08/25 08:32:03;;;;;;;6.80;6.20;;;;;;;;;;5015954;28;20461;-93
2021/08/25 08:34:30;;;;;;;7.53;6.80;;;;;;;;;;5015703;28;20444;-92
2021/08/25 08:36:57;;;;;;;9.87;6.50;;;;;;;;;;5013209;28;20444;-94
2021/08/25 08:39:25;;;;;;;8.43;6.70;;;;;;;;;;5016241;28;20459;-93
2021/08/25 08:41:53;;;;;;;6.60;5.93;;;;;;;;;;5015399;28;20842;-92
2021/08/25 08:44:21;;;;;;;7.10;6.50;;;;;;;;;;5020753;28;20506;-95
2021/08/25 08:46:49;;;;;;;7.47;6.67;;;;;;;;;;5057084;28;20925;-93
2021/08/25 08:49:16;;;;;;;9.10;7.20;;;;;;;;;;5057133;28;20454;-93
2021/08/25 08:51:44;;;;;;;7.40;6.60;;;;;;;;;;5057243;28;20455;-94
2021/08/25 08:54:11;;;;;;;7.00;6.40;;;;;;;;;;5056928;28;20524;-93
2021/08/25 08:56:38;;;;;;;6.67;6.07;;;22.40;99.90;;;;;;5055585;28;20450;-91
2021/08/25 08:59:07;;;;;;;7.37;6.67;;;21.70;99.90;;;;;;5055117;28;20465;-93
2021/08/25 09:01:36;;;;;;;7.43;6.70;;;21.90;99.90;;;;;;5056134;28;20439;-92
2021/08/25 09:04:03;;;;;;;6.40;5.80;;;;;;;;;;5056712;28;20446;-93
2021/08/25 09:06:46;;;;;;;7.27;6.23;;;22.40;99.90;;;;;;5062229;28;20819;-92
2021/08/25 09:09:13;;;;;;;6.47;5.87;;;;;;;;;;5056433;28;20495;-92
2021/08/25 09:11:50;;;;;;;7.83;7.00;;;;;;;;;;5055604;28;20496;-92
2021/08/25 09:14:19;;;;;;;7.20;6.00;;;;;;;;;;5056321;28;20957;-90
2021/08/25 09:16:46;;;;;;;6.93;6.00;;;22.10;99.90;;;;;;5057354;28;20446;-91
2021/08/25 09:19:17;;;;;;;5.90;4.70;;;22.20;99.90;;;;;;5057923;28;20484;-92
2021/08/25 09:21:45;;;;;;;6.53;5.93;;;;;;;;;;5057137;28;20493;-94
2021/08/25 09:24:13;;;;;;;5.40;4.90;;;;;;;;;;5056252;28;20534;-94
2021/08/25 09:27:00;;;;;;;163.27;105.67;;;;;;;;;;5055215;28;20465;-93
2021/08/25 09:29:28;;;;;;;8.20;4.50;;;;;;;;;;5055977;28;20957;-94
2021/08/25 09:31:55;;;;;;;5.23;4.73;;;;;;;;;;5057963;28;20947;-95
2021/08/25 09:34:27;;;;;;;5.67;4.97;;;;;;;;;;5055560;28;20458;-93
2021/08/25 09:37:06;;;;;;;5.70;5.20;;;24.10;99.90;;;;;;5056855;28;20455;-92
2021/08/25 09:39:33;;;;;;;5.80;5.20;;;;;;;;;;5055772;28;20455;-92
2021/08/25 09:42:04;;;;;;;4.37;4.00;;;;;;;;;;5054678;28;20502;-91
2021/08/25 09:44:32;;;;;;;4.93;4.20;;;;;;;;;;5055374;28;20540;-92
2021/08/25 09:47:00;;;;;;;5.30;4.80;;;;;;;;;;5055890;28;20430;-91
2021/08/25 09:49:27;;;;;;;5.67;5.17;;;;;;;;;;5055482;28;20995;-94
2021/08/25 09:51:55;;;;;;;5.00;4.57;;;;;;;;;;5055351;28;20434;-94
2021/08/25 09:54:22;;;;;;;4.90;4.27;;;;;;;;;;5055598;28;20457;-92
2021/08/25 09:56:53;;;;;;;5.87;5.37;;;22.50;97.70;;;;;;5055340;28;20965;-93
2021/08/25 09:59:20;;;;;;;5.40;4.90;;;;;;;;;;5055009;28;20470;-93
2021/08/25 10:01:49;;;;;;;6.73;5.03;;;24.00;98.00;;;;;;5053708;28;20534;-92
2021/08/25 10:04:17;;;;;;;5.93;5.33;;;22.70;96.90;;;;;;5046556;28;20454;-92
2021/08/25 10:06:46;;;;;;;4.90;4.47;;;22.80;98.80;;;;;;5052938;28;20486;-95
2021/08/25 10:09:13;;;;;;;5.43;4.80;;;23.30;95.70;;;;;;5054291;28;20450;-93
2021/08/25 10:11:43;;;;;;;7.03;4.80;;;22.30;95.90;;;;;;5054792;28;20453;-92
2021/08/25 10:14:11;;;;;;;6.07;5.07;;;22.50;97.60;;;;;;5055459;28;20435;-92
2021/08/25 10:16:44;;;;;;;5.13;4.50;;;23.00;96.50;;;;;;5053840;28;20443;-91
2021/08/25 10:19:25;;;;;;;5.90;4.43;;;;;;;;;;5056164;28;20450;-95
2021/08/25 10:21:53;;;;;;;6.13;4.40;;;;;;;;;;5057442;28;20930;-94
2021/08/25 10:24:21;;;;;;;5.90;4.43;;;;;;;;;;5056605;28;20454;-93
2021/08/25 10:27:09;;;;;;;6.33;4.83;;;23.00;96.60;;;;;;5070519;28;20499;-92
2021/08/25 10:30:05;;;;;;;4.87;4.47;;;23.20;98.20;;;;;;5077667;28;20450;-93
2021/08/25 10:32:33;;;;;;;5.40;4.40;;;;;;;;;;5051641;28;20450;-92
2021/08/25 10:35:31;;;;;;;4.37;3.97;;;22.10;98.20;;;;;;5055259;28;20446;-93
2021/08/25 10:38:21;;;;;;;4.30;3.90;;;22.10;97.90;;;;;;5021298;28;20459;-93
2021/08/25 10:40:49;;;;;;;6.20;4.90;;;22.30;98.30;;;;;;5055234;28;20504;-93
2021/08/25 10:43:49;;;;;;;7.20;4.07;;;22.20;97.70;;;;;;5055072;28;20481;-94
2021/08/25 10:46:17;;;;;;;6.70;4.37;;;22.70;96.80;;;;;;5013391;28;20612;-94
2021/08/25 10:48:52;;;;;;;5.23;4.20;;;22.80;94.80;;;;;;5014028;28;20453;-95
2021/08/25 10:51:41;;;;;;;4.73;4.23;;;23.70;96.80;;;;;;5014565;28;20456;-95
2021/08/25 10:54:10;;;;;;;6.93;4.40;;;24.00;94.70;;;;;;5013770;28;20456;-93
2021/08/25 10:56:42;;;;;;;6.83;4.07;;;24.40;94.00;;;;;;5013269;28;20460;-93
2021/08/25 10:59:10;;;;;;;4.07;3.67;;;24.50;92.40;;;;;;5055010;28;20938;-94
2021/08/25 11:01:40;;;;;;;5.47;3.00;;;23.80;90.10;;;;;;5054904;28;20453;-91
2021/08/25 11:04:10;;;;;;;6.90;4.83;;;22.90;90.90;;;;;;5050432;28;20946;-92
2021/08/25 11:06:44;;;;;;;3.53;3.23;;;22.50;89.90;;;;;;5054874;28;20494;-90
2021/08/25 11:09:19;;;;;;;5.50;3.80;;;22.30;90.50;;;;;;5053604;28;20463;-91
2021/08/25 11:11:49;;;;;;;4.40;3.50;;;23.80;92.20;;;;;;5018452;28;20438;-91
2021/08/25 11:14:20;;;;;;;8.50;4.00;;;24.30;93.30;;;;;;5055854;28;20446;-91
2021/08/25 11:16:48;;;;;;;3.80;3.50;;;;;;;;;;5053118;28;20442;-93
2021/08/25 11:19:26;;;;;;;5.40;4.40;;;24.60;94.60;;;;;;5053509;28;20450;-93
2021/08/25 11:21:56;;;;;;;6.13;4.03;;;24.00;92.90;;;;;;5052730;28;20453;-92
2021/08/25 11:24:23;;;;;;;7.37;4.30;;;;;;;;;;5055210;28;20441;-92
2021/08/25 11:26:51;;;;;;;4.97;3.83;;;;;;;;;;5053893;28;20481;-94
2021/08/25 11:29:23;;;;;;;5.50;4.40;;;22.50;95.40;;;;;;5054218;28;20457;-92
2021/08/25 11:31:52;;;;;;;6.83;4.93;;;22.20;97.80;;;;;;5034343;28;20785;-92
2021/08/25 11:34:21;;;;;;;5.03;4.13;;;22.90;96.10;;;;;;5029420;28;20452;-92
2021/08/25 11:37:02;;;;;;;5.10;3.60;;;23.20;91.10;;;;;;5035284;28;20463;-92
2021/08/25 11:39:29;;;;;;;4.60;3.73;;;;;;;;;;5033357;28;20919;-92
2021/08/25 11:41:57;;;;;;;5.17;4.07;;;;;;;;;;5033022;28;20440;-89
2021/08/25 11:44:44;;;;;;;4.40;3.20;;;23.30;90.10;;;;;;5033140;28;21049;-90
2021/08/25 11:47:16;;;;;;;4.50;4.10;;;23.30;90.10;;;;;;5033180;28;20509;-89
2021/08/25 11:49:45;;;;;;;5.60;4.00;;;23.80;88.80;;;;;;5032972;28;20451;-89
2021/08/25 11:52:17;;;;;;;5.00;4.00;;;22.80;90.50;;;;;;5032947;28;20462;-91
2021/08/25 11:54:45;;;;;;;5.30;4.50;;;;;;;;;;5015258;28;20444;-92
2021/08/25 11:57:12;;;;;;;5.90;4.90;;;;;;;;;;5033786;28;20440;-91
2021/08/25 11:59:59;;;;;;;5.07;4.57;;;24.20;94.70;;;;;;5033617;28;20444;-92
2021/08/25 12:02:26;;;;;;;5.03;4.10;;;22.80;96.10;;;;;;5034370;28;20462;-93
2021/08/25 12:04:54;;;;;;;5.27;4.47;;;;;;;;;;5034421;28;20456;-91
2021/08/25 12:07:22;;;;;;;6.93;4.60;;;23.10;97.70;;;;;;5033466;28;20483;-92
2021/08/25 12:09:49;;;;;;;4.40;4.00;;;;;;;;;;5029579;28;20451;-92
2021/08/25 12:12:16;;;;;;;5.83;5.07;;;;;;;;;;5029995;28;20451;-91
2021/08/25 12:14:59;;;;;;;5.00;4.40;;;23.30;95.70;;;;;;5032801;28;20474;-90
2021/08/25 12:17:26;;;;;;;5.80;4.63;;;;;;;;;;4998726;28;20448;-91
2021/08/25 12:20:02;;;;;;;5.40;4.37;;;24.60;93.60;;;;;;5033461;28;20447;-92
2021/08/25 12:22:31;;;;;;;7.23;5.10;;;24.10;94.50;;;;;;5033340;28;20439;-93
2021/08/25 12:24:59;;;;;;;5.93;4.27;;;23.00;91.90;;;;;;5032890;28;20467;-90
2021/08/25 12:27:27;;;;;;;4.50;4.10;;;;;;;;;;5032498;28;20826;-91
2021/08/25 12:30:01;;;;;;;5.53;4.40;;;;;;;;;;5033939;28;20462;-92
2021/08/25 12:32:42;;;;;;;4.60;4.10;;;23.40;93.80;;;;;;5035751;28;20454;-92
2021/08/25 12:35:09;;;;;;;5.07;4.37;;;;;;;;;;5018395;28;20454;-89
2021/08/25 12:38:03;;;;;;;6.10;4.30;;;;;;;;;;5037199;28;20442;-90
2021/08/25 12:40:30;;;;;;;7.87;5.00;;;;;;;;;;5036846;28;20462;-91
2021/08/25 12:42:58;;;;;;;5.07;4.23;;;23.80;86.60;;;;;;5036786;28;20438;-91
2021/08/25 12:45:26;;;;;;;5.77;4.13;;;;;;;;;;5036240;28;20482;-90
2021/08/25 12:47:55;;;;;;;5.23;4.57;;;23.30;88.80;;;;;;5036934;28;20537;-90
2021/08/25 12:50:24;;;;;;;5.40;3.90;;;23.70;90.10;;;;;;5036752;28;20440;-89
2021/08/25 12:52:52;;;;;;;5.60;4.30;;;;;;;;;;5036775;28;20795;-91
2021/08/25 12:55:22;;;;;;;5.03;4.13;;;24.20;92.20;;;;;;5035592;28;20443;-90
2021/08/25 12:57:49;;;;;;;5.30;4.57;;;;;;;;;;5036403;28;20459;-92
2021/08/25 13:00:16;;;;;;;6.50;5.20;;;;;;;;;;5036419;28;20515;-91
2021/08/25 13:02:43;;;;;;;5.80;4.30;;;;;;;;;;5036734;28;20459;-91
2021/08/25 13:05:12;;;;;;;5.13;4.27;;;;;;;;;;5036442;28;20466;-91
2021/08/25 13:07:39;;;;;;;5.23;4.30;;;;;;;;;;5036477;28;20483;-89
2021/08/25 13:10:06;;;;;;;9.23;4.47;;;;;;;;;;5035492;28;20436;-90
2021/08/25 13:12:35;;;;;;;5.20;4.70;;;24.30;90.60;;;;;;5046227;28;20428;-91
2021/08/25 13:15:02;;;;;;;5.00;4.40;;;;;;;;;;5026400;28;20439;-89
2021/08/25 13:17:29;;;;;;;7.83;4.53;;;;;;;;;;5044723;28;20447;-90
2021/08/25 13:19:56;;;;;;;5.20;4.17;;;;;;;;;;5036150;28;20490;-90
2021/08/25 13:22:23;;;;;;;4.97;4.47;;;;;;;;;;5035616;28;20463;-91
2021/08/25 13:24:50;;;;;;;5.53;4.37;;;;;;;;;;5035752;28;20803;-90
2021/08/25 13:27:18;;;;;;;5.50;4.23;;;;;;;;;;5035420;28;20495;-90
2021/08/25 13:29:46;;;;;;;6.47;4.27;;;23.20;84.80;;;;;;5035471;28;20460;-89
2021/08/25 13:32:13;;;;;;;6.10;5.50;;;;;;;;;;5035310;28;20435;-89
2021/08/25 13:34:40;;;;;;;4.90;4.40;;;;;;;;;;5035888;28;20930;-90
2021/08/25 13:37:08;;;;;;;6.90;4.30;;;;;;;;;;5035302;28;20439;-91
2021/08/25 13:39:35;;;;;;;5.73;5.10;;;;;;;;;;5036976;28;20442;-90
2021/08/25 13:42:02;;;;;;;4.67;4.27;;;;;;;;;;5033682;28;20460;-91
2021/08/25 13:44:29;;;;;;;6.47;4.70;;;;;;;;;;5035132;28;20499;-91
2021/08/25 13:46:57;;;;;;;7.90;4.83;;;24.30;88.30;;;;;;5035224;28;20862;-91
2021/08/25 13:49:24;;;;;;;5.30;4.30;;;;;;;;;;5035194;28;20440;-91
2021/08/25 13:51:51;;;;;;;5.67;5.07;;;;;;;;;;5035614;28;20436;-92
2021/08/25 13:54:19;;;;;;;6.77;4.80;;;;;;;;;;5035813;28;20463;-93
2021/08/25 13:56:46;;;;;;;7.80;4.40;;;;;;;;;;5035369;28;20447;-92
2021/08/25 13:59:13;;;;;;;6.03;4.60;;;;;;;;;;5035045;28;20444;-91
2021/08/25 14:01:40;;;;;;;6.90;4.70;;;;;;;;;;5035085;28;20459;-90
2021/08/25 14:04:08;;;;;;;5.77;4.83;;;24.30;88.60;;;;;;5035131;28;20455;-89
2021/08/25 14:06:36;;;;;;;5.90;4.50;;;;;;;;;;5035213;28;20545;-92